createdAt,value
2022-11-17T00:01:17.354Z,13.36
2022-11-17T00:03:53.006Z,13.42
2022-11-17T00:06:22.524Z,13.62
2022-11-17T00:08:53.517Z,13.44
2022-11-17T00:11:23.254Z,13.12
2022-11-17T00:14:09.353Z,13.14
2022-11-17T00:16:51.158Z,13.23
2022-11-17T00:19:39.680Z,13.24
2022-11-17T00:22:11.437Z,13.60
2022-11-17T00:24:40.108Z,13.36
2022-11-17T00:27:09.142Z,13.58
2022-11-17T00:29:39.468Z,13.24
2022-11-17T00:32:25.724Z,13.34
2022-11-17T00:34:56.158Z,13.12
2022-11-17T00:37:25.578Z,13.62
2022-11-17T00:40:00.381Z,13.40
2022-11-17T00:42:29.390Z,13.55
2022-11-17T00:44:57.686Z,13.46
2022-11-17T00:47:28.902Z,13.40
2022-11-17T00:49:59.322Z,13.33
2022-11-17T00:52:27.754Z,13.75
2022-11-17T00:54:57.587Z,13.24
2022-11-17T00:57:26.384Z,13.66
2022-11-17T00:59:55.096Z,13.20
2022-11-17T01:02:23.961Z,13.29
2022-11-17T01:04:52.849Z,13.26
2022-11-17T01:07:25.596Z,13.72
2022-11-17T01:09:55.750Z,13.45
2022-11-17T01:12:27.441Z,13.24
2022-11-17T01:14:57.495Z,12.89
2022-11-17T01:17:26.620Z,12.98
2022-11-17T01:19:55.208Z,13.16
2022-11-17T01:22:26.211Z,13.10
2022-11-17T01:24:55.189Z,13.78
2022-11-17T01:27:23.841Z,13.43
2022-11-17T01:29:53.729Z,13.46
2022-11-17T01:32:27.073Z,13.42
2022-11-17T01:34:55.635Z,13.09
2022-11-17T01:37:26.081Z,13.50
2022-11-17T01:39:54.937Z,13.53
2022-11-17T01:42:26.925Z,13.58
2022-11-17T01:45:02.657Z,13.03
2022-11-17T01:47:43.330Z,13.26
2022-11-17T01:50:28.367Z,13.01
2022-11-17T01:53:02.332Z,12.86
2022-11-17T01:55:36.813Z,12.95
2022-11-17T01:58:10.872Z,13.45
2022-11-17T02:00:41.397Z,13.42
2022-11-17T02:03:10.764Z,13.20
2022-11-17T02:05:49.220Z,13.50
2022-11-17T02:08:23.940Z,13.55
2022-11-17T02:10:53.888Z,13.16
2022-11-17T02:13:23.613Z,13.51
2022-11-17T02:15:53.539Z,13.08
2022-11-17T02:18:22.117Z,13.56
2022-11-17T02:21:28.478Z,13.50
2022-11-17T02:24:50.223Z,13.64
2022-11-17T02:27:42.461Z,13.15
2022-11-17T02:30:15.520Z,13.20
2022-11-17T02:33:01.424Z,13.45
2022-11-17T02:35:37.983Z,13.74
2022-11-17T02:38:19.456Z,13.48
2022-11-17T02:40:58.814Z,13.75
2022-11-17T02:43:53.541Z,13.73
2022-11-17T02:46:25.808Z,13.57
2022-11-17T02:49:00.550Z,13.56
2022-11-17T02:51:30.467Z,13.14
2022-11-17T02:54:04.125Z,13.64
2022-11-17T02:56:34.635Z,13.61
2022-11-17T02:59:07.638Z,13.39
2022-11-17T03:02:09.077Z,13.54
2022-11-17T03:04:50.256Z,13.36
2022-11-17T03:07:37.434Z,13.53
2022-11-17T03:10:16.604Z,13.61
2022-11-17T03:12:54.091Z,13.45
2022-11-17T03:15:35.172Z,13.41
2022-11-17T03:18:12.492Z,13.55
2022-11-17T03:20:51.683Z,13.63
2022-11-17T03:23:30.188Z,13.45
2022-11-17T03:26:01.604Z,13.55
2022-11-17T03:28:31.883Z,13.51
2022-11-17T03:31:07.173Z,13.81
2022-11-17T03:33:38.436Z,13.63
2022-11-17T03:36:13.897Z,13.35
2022-11-17T03:38:55.442Z,13.85
2022-11-17T03:41:25.424Z,13.59
2022-11-17T03:43:58.505Z,13.53
2022-11-17T03:46:30.864Z,13.54
2022-11-17T03:49:07.220Z,14.17
2022-11-17T03:51:36.652Z,13.59
2022-11-17T03:54:06.237Z,13.53
2022-11-17T03:56:45.891Z,13.63
2022-11-17T03:59:24.508Z,13.89
2022-11-17T04:01:54.982Z,14.08
2022-11-17T04:04:24.663Z,13.81
2022-11-17T04:06:56.846Z,14.06
2022-11-17T04:09:25.439Z,13.80
2022-11-17T04:12:11.685Z,13.61
2022-11-17T04:14:59.311Z,13.83
2022-11-17T04:17:29.672Z,14.06
2022-11-17T04:19:58.930Z,14.11
2022-11-17T04:22:27.969Z,13.99
2022-11-17T04:24:57.301Z,13.98
2022-11-17T04:27:43.253Z,13.71
2022-11-17T04:30:13.554Z,13.71
2022-11-17T04:32:43.839Z,13.50
2022-11-17T04:35:12.755Z,13.93
2022-11-17T04:37:41.211Z,13.84
2022-11-17T04:40:12.352Z,14.08
2022-11-17T04:42:39.621Z,14.29
2022-11-17T04:45:13.197Z,14.17
2022-11-17T04:47:43.797Z,14.08
2022-11-17T04:50:23.199Z,14.29
2022-11-17T04:52:53.594Z,13.86
2022-11-17T04:55:22.728Z,13.75
2022-11-17T04:57:52.140Z,14.12
2022-11-17T05:00:25.113Z,14.00
2022-11-17T05:02:56.115Z,14.20
2022-11-17T05:05:25.333Z,14.23
2022-11-17T05:07:54.654Z,14.16
2022-11-17T05:10:48.940Z,14.08
2022-11-17T05:13:22.134Z,14.26
2022-11-17T05:16:11.469Z,14.23
2022-11-17T05:18:44.568Z,14.26
2022-11-17T05:21:13.661Z,14.30
2022-11-17T05:23:56.463Z,14.36
2022-11-17T05:26:28.075Z,14.40
2022-11-17T05:29:01.421Z,14.14
2022-11-17T05:31:30.620Z,14.30
2022-11-17T05:34:05.229Z,14.16
2022-11-17T05:36:38.437Z,14.72
2022-11-17T05:39:09.274Z,14.08
2022-11-17T05:41:39.905Z,14.26
2022-11-17T05:44:10.566Z,14.13
2022-11-17T05:46:56.437Z,14.05
2022-11-17T05:49:27.039Z,14.08
2022-11-17T05:51:57.267Z,13.91
2022-11-17T05:54:29.868Z,13.87
2022-11-17T05:57:06.244Z,14.27
2022-11-17T05:59:41.856Z,14.12
2022-11-17T06:02:19.170Z,14.05
2022-11-17T06:04:57.413Z,13.64
2022-11-17T06:07:29.234Z,13.79
2022-11-17T06:10:00.369Z,14.17
2022-11-17T06:12:29.132Z,14.02
2022-11-17T06:14:57.915Z,14.03
2022-11-17T06:17:36.073Z,13.95
2022-11-17T06:20:17.986Z,14.01
2022-11-17T06:22:49.213Z,13.95
2022-11-17T06:25:20.327Z,13.90
2022-11-17T06:27:51.922Z,13.87
2022-11-17T06:30:21.466Z,14.05
2022-11-17T06:32:53.484Z,13.69
2022-11-17T06:35:30.351Z,13.57
2022-11-17T06:37:59.816Z,13.98
2022-11-17T06:40:31.705Z,14.13
2022-11-17T06:43:09.870Z,13.60
2022-11-17T06:45:43.021Z,13.85
2022-11-17T06:48:14.966Z,13.85
2022-11-17T06:50:45.794Z,13.59
2022-11-17T06:53:15.165Z,14.10
2022-11-17T06:55:43.709Z,14.17
2022-11-17T06:58:12.737Z,14.61
2022-11-17T07:00:41.628Z,14.76
2022-11-17T07:03:12.764Z,14.23
2022-11-17T07:05:43.431Z,13.72
2022-11-17T07:08:15.076Z,14.26
2022-11-17T07:10:49.358Z,14.35
2022-11-17T07:13:18.878Z,13.88
2022-11-17T07:15:49.625Z,13.71
2022-11-17T07:18:19.863Z,13.73
2022-11-17T07:20:49.639Z,13.71
2022-11-17T07:23:19.583Z,13.93
2022-11-17T07:25:49.945Z,14.02
2022-11-17T07:28:19.111Z,14.14
2022-11-17T07:30:47.715Z,13.51
2022-11-17T07:33:17.918Z,13.71
2022-11-17T07:35:47.174Z,13.96
2022-11-17T07:38:16.524Z,14.03
2022-11-17T07:40:47.120Z,13.91
2022-11-17T07:43:16.720Z,13.89
2022-11-17T07:45:45.720Z,13.55
2022-11-17T07:48:15.920Z,13.87
2022-11-17T07:50:47.370Z,13.66
2022-11-17T07:53:17.133Z,13.50
2022-11-17T07:55:48.418Z,14.14
2022-11-17T07:58:19.369Z,13.92
2022-11-17T08:00:50.355Z,13.87
2022-11-17T08:03:19.593Z,13.67
2022-11-17T08:05:50.451Z,14.28
2022-11-17T08:08:20.245Z,14.04
2022-11-17T08:10:56.666Z,14.04
2022-11-17T08:13:25.778Z,13.73
2022-11-17T08:15:59.206Z,13.76
2022-11-17T08:18:30.140Z,13.87
2022-11-17T08:21:05.743Z,14.21
2022-11-17T08:23:37.597Z,14.09
2022-11-17T08:26:10.461Z,13.40
2022-11-17T08:28:39.371Z,13.70
2022-11-17T08:31:09.576Z,13.52
2022-11-17T08:33:41.424Z,13.82
2022-11-17T08:36:12.943Z,13.67
2022-11-17T08:38:42.088Z,13.73
2022-11-17T08:41:15.151Z,13.76
2022-11-17T08:43:44.693Z,13.67
2022-11-17T08:46:14.399Z,13.17
2022-11-17T08:48:43.638Z,13.61
2022-11-17T08:51:15.401Z,13.49
2022-11-17T08:53:45.213Z,13.60
2022-11-17T08:56:19.239Z,13.53
2022-11-17T08:58:48.015Z,13.83
2022-11-17T09:01:19.983Z,13.89
2022-11-17T09:03:49.909Z,13.21
2022-11-17T09:06:22.474Z,13.77
2022-11-17T09:08:54.560Z,13.64
2022-11-17T09:11:30.345Z,14.15
2022-11-17T09:13:58.995Z,13.88
2022-11-17T09:16:29.254Z,13.79
2022-11-17T09:18:59.524Z,14.32
2022-11-17T09:21:31.119Z,14.10
2022-11-17T09:24:00.187Z,14.09
2022-11-17T09:26:31.608Z,13.42
2022-11-17T09:29:08.907Z,13.34
2022-11-17T09:31:38.470Z,13.76
2022-11-17T09:34:08.632Z,13.34
2022-11-17T09:36:37.179Z,13.54
2022-11-17T09:39:07.815Z,14.08
2022-11-17T09:41:45.875Z,13.20
2022-11-17T09:44:31.322Z,13.75
2022-11-17T09:47:15.036Z,13.77
2022-11-17T09:49:58.706Z,13.85
2022-11-17T09:52:36.801Z,13.67
2022-11-17T09:55:23.696Z,13.77
2022-11-17T09:58:09.919Z,13.60
2022-11-17T10:00:42.178Z,13.56
2022-11-17T10:03:20.588Z,13.33
2022-11-17T10:05:50.875Z,13.44
2022-11-17T10:08:31.486Z,13.46
2022-11-17T10:11:00.576Z,13.79
2022-11-17T10:13:38.547Z,13.80
2022-11-17T10:16:14.931Z,12.98
2022-11-17T10:18:46.491Z,13.31
2022-11-17T10:21:17.000Z,13.73
2022-11-17T10:23:54.696Z,13.55
2022-11-17T10:26:23.787Z,13.37
2022-11-17T10:29:09.902Z,14.00
2022-11-17T10:31:45.060Z,13.58
2022-11-17T10:34:38.807Z,13.86
2022-11-17T10:37:33.379Z,13.44
2022-11-17T10:40:25.070Z,13.91
2022-11-17T10:43:17.861Z,13.34
2022-11-17T10:45:50.172Z,13.68
2022-11-17T10:48:33.587Z,13.90
2022-11-17T10:51:09.740Z,13.74
2022-11-17T10:53:45.521Z,14.00
2022-11-17T10:56:19.272Z,13.97
2022-11-17T10:59:03.251Z,13.86
2022-11-17T11:01:38.618Z,13.60
2022-11-17T11:04:09.016Z,13.21
2022-11-17T11:06:38.382Z,13.32
2022-11-17T11:09:16.938Z,13.11
2022-11-17T11:11:51.151Z,13.21
2022-11-17T11:14:29.473Z,13.29
2022-11-17T11:17:00.660Z,13.23
2022-11-17T11:19:31.286Z,13.64
2022-11-17T11:22:28.160Z,13.68
2022-11-17T11:25:12.979Z,13.38
2022-11-17T11:28:29.306Z,13.63
2022-11-17T11:31:08.135Z,13.71
2022-11-17T11:33:42.925Z,13.61
2022-11-17T11:36:32.031Z,13.79
2022-11-17T11:39:09.648Z,13.50
2022-11-17T11:42:06.394Z,14.02
2022-11-17T11:44:59.154Z,13.49
2022-11-17T11:47:50.309Z,14.00
2022-11-17T11:50:28.664Z,14.02
2022-11-17T11:53:07.855Z,14.21
2022-11-17T11:55:42.510Z,14.25
2022-11-17T11:58:21.201Z,14.06
2022-11-17T12:00:54.324Z,13.58
2022-11-17T12:03:31.892Z,13.60
2022-11-17T12:06:30.793Z,13.22
2022-11-17T12:09:44.140Z,13.19
2022-11-17T12:12:19.137Z,13.74
2022-11-17T12:15:34.463Z,13.43
2022-11-17T12:18:08.189Z,13.63
2022-11-17T12:21:01.306Z,13.73
2022-11-17T12:27:56.992Z,13.39
2022-11-17T12:30:59.262Z,13.21
2022-11-17T12:34:13.203Z,13.63
2022-11-17T12:36:42.605Z,13.49
2022-11-17T12:39:56.126Z,13.35
2022-11-17T12:42:24.901Z,13.59
2022-11-17T12:45:13.129Z,13.24
2022-11-17T12:47:44.948Z,13.37
2022-11-17T12:50:43.652Z,13.33
2022-11-17T12:53:49.835Z,13.42
2022-11-17T12:57:05.707Z,13.62
2022-11-17T13:00:11.816Z,13.08
2022-11-17T13:03:00.139Z,13.39
2022-11-17T13:05:32.843Z,13.29
2022-11-17T13:08:25.092Z,13.13
2022-11-17T13:11:18.523Z,13.53
2022-11-17T13:13:49.067Z,13.76
2022-11-17T13:16:25.533Z,13.43
2022-11-17T13:18:55.443Z,13.44
2022-11-17T13:21:34.519Z,13.56
2022-11-17T13:24:03.558Z,13.42
2022-11-17T13:26:38.143Z,13.52
2022-11-17T13:29:14.828Z,13.53
2022-11-17T13:31:43.509Z,13.49
2022-11-17T13:34:52.238Z,13.28
2022-11-17T13:37:28.195Z,13.25
2022-11-17T13:40:03.797Z,13.47
2022-11-17T13:42:35.765Z,13.53
2022-11-17T13:45:07.589Z,13.84
2022-11-17T13:47:46.970Z,13.96
2022-11-17T13:50:39.807Z,14.38
2022-11-17T13:53:25.422Z,13.81
2022-11-17T13:55:56.889Z,13.67
2022-11-17T13:58:40.321Z,13.37
2022-11-17T14:01:13.768Z,13.36
2022-11-17T14:03:46.577Z,13.38
2022-11-17T14:06:17.104Z,13.95
2022-11-17T14:09:05.995Z,13.98
2022-11-17T14:11:38.257Z,13.70
2022-11-17T14:14:15.325Z,14.29
2022-11-17T14:16:45.544Z,14.08
2022-11-17T14:19:34.439Z,14.27
2022-11-17T14:22:29.512Z,14.13
2022-11-17T14:25:00.614Z,13.94
2022-11-17T14:27:42.122Z,14.21
2022-11-17T14:30:15.813Z,14.04
2022-11-17T14:32:44.991Z,13.61
2022-11-17T14:37:48.919Z,14.17
2022-11-17T14:40:26.745Z,13.14
2022-11-17T14:43:06.798Z,13.48
2022-11-17T14:45:36.450Z,13.79
2022-11-17T14:48:07.490Z,13.42
2022-11-17T14:50:36.494Z,13.41
2022-11-17T14:53:06.903Z,13.19
2022-11-17T14:55:35.592Z,13.90
2022-11-17T14:58:04.154Z,13.34
2022-11-17T15:00:34.870Z,13.16
2022-11-17T15:03:03.515Z,13.58
2022-11-17T15:05:32.089Z,13.72
2022-11-17T15:08:00.743Z,13.32
2022-11-17T15:10:31.977Z,13.30
2022-11-17T15:13:01.237Z,13.51
2022-11-17T15:15:33.286Z,13.58
2022-11-17T15:18:03.242Z,13.52
2022-11-17T15:20:32.221Z,14.00
2022-11-17T15:23:03.388Z,13.95
2022-11-17T15:25:34.210Z,13.82
2022-11-17T15:28:03.587Z,13.22
2022-11-17T15:30:32.291Z,13.21
2022-11-17T15:33:01.928Z,13.41
2022-11-17T15:35:30.955Z,13.52
2022-11-17T15:38:00.132Z,13.52
2022-11-17T15:40:29.919Z,13.69
2022-11-17T15:43:00.241Z,13.39
2022-11-17T15:45:29.770Z,13.42
2022-11-17T15:47:59.756Z,13.75
2022-11-17T15:50:30.261Z,13.52
2022-11-17T15:53:04.395Z,13.57
2022-11-17T15:55:40.634Z,13.61
2022-11-17T15:58:11.116Z,13.38
2022-11-17T16:00:40.872Z,13.24
2022-11-17T16:03:13.171Z,13.68
2022-11-17T16:05:41.672Z,13.61
2022-11-17T16:08:10.790Z,13.42
2022-11-17T16:10:39.412Z,13.41
2022-11-17T16:13:08.197Z,13.57
2022-11-17T16:15:38.210Z,13.44
2022-11-17T16:18:07.068Z,13.22
2022-11-17T16:20:36.093Z,13.42
2022-11-17T16:23:04.796Z,13.72
2022-11-17T16:25:34.240Z,13.83
2022-11-17T16:28:03.518Z,13.75
2022-11-17T16:30:35.753Z,13.45
2022-11-17T16:33:11.735Z,13.58
2022-11-17T16:35:40.908Z,13.56
2022-11-17T16:38:14.202Z,13.70
2022-11-17T16:40:43.956Z,13.75
2022-11-17T16:43:17.626Z,13.49
2022-11-17T16:45:50.286Z,13.53
2022-11-17T16:48:21.066Z,13.91
2022-11-17T16:50:50.724Z,13.72
2022-11-17T16:53:19.343Z,13.54
2022-11-17T16:55:47.906Z,13.72
2022-11-17T16:58:16.505Z,13.44
2022-11-17T17:00:45.786Z,13.67
2022-11-17T17:03:14.918Z,13.85
2022-11-17T17:05:45.182Z,13.79
2022-11-17T17:08:14.344Z,13.40
2022-11-17T17:10:43.381Z,13.77
2022-11-17T17:13:13.702Z,13.85
2022-11-17T17:15:41.898Z,13.85
2022-11-17T17:18:10.473Z,13.30
2022-11-17T17:20:39.355Z,13.65
2022-11-17T17:23:10.696Z,13.55
2022-11-17T17:25:39.995Z,13.71
2022-11-17T17:28:08.571Z,13.31
2022-11-17T17:33:44.092Z,13.52
2022-11-17T17:36:17.652Z,13.58
2022-11-17T17:41:52.198Z,13.92
2022-11-17T17:44:22.724Z,13.71
2022-11-17T17:46:51.926Z,13.76
2022-11-17T17:49:24.424Z,13.86
2022-11-17T17:51:54.749Z,13.63
2022-11-17T17:54:25.544Z,13.38
2022-11-17T17:56:54.376Z,13.54
2022-11-17T17:59:23.002Z,13.51
2022-11-17T18:01:53.364Z,14.15
2022-11-17T18:04:22.472Z,14.03
2022-11-17T18:06:52.872Z,13.43
2022-11-17T18:09:21.861Z,13.87
2022-11-17T18:11:52.810Z,13.73
2022-11-17T18:14:24.952Z,13.75
2022-11-17T18:16:56.001Z,13.64
2022-11-17T18:19:31.405Z,13.75
2022-11-17T18:22:02.333Z,13.60
2022-11-17T18:24:32.311Z,13.51
2022-11-17T18:27:04.866Z,13.85
2022-11-17T18:29:34.301Z,13.84
2022-11-17T18:32:03.854Z,13.64
2022-11-17T18:34:34.738Z,13.84
2022-11-17T18:37:08.857Z,13.88
2022-11-17T18:39:38.735Z,13.77
2022-11-17T18:45:51.178Z,13.71
2022-11-17T18:48:22.503Z,13.92
2022-11-17T18:51:17.854Z,13.83
2022-11-17T18:53:42.213Z,13.71
2022-11-17T18:56:17.860Z,13.39
2022-11-17T18:58:47.282Z,13.46
2022-11-17T19:01:45.380Z,13.40
2022-11-17T19:04:15.646Z,13.64
2022-11-17T19:06:45.039Z,13.43
2022-11-17T19:09:15.725Z,13.21
2022-11-17T19:11:45.328Z,13.20
2022-11-17T19:14:14.533Z,13.03
2022-11-17T19:16:45.637Z,13.84
2022-11-17T19:19:15.255Z,13.36
2022-11-17T19:21:47.184Z,13.33
2022-11-17T19:24:17.427Z,13.13
2022-11-17T19:27:09.578Z,13.00
2022-11-17T19:29:41.945Z,13.35
2022-11-17T19:32:13.997Z,13.08
2022-11-17T19:34:42.791Z,13.20
2022-11-17T19:37:11.462Z,12.98
2022-11-17T19:39:40.780Z,13.02
2022-11-17T19:42:10.464Z,13.01
2022-11-17T19:44:39.068Z,13.58
2022-11-17T19:50:56.092Z,13.07
2022-11-17T19:53:30.032Z,13.05
2022-11-17T19:56:02.014Z,13.12
2022-11-17T20:01:33.358Z,12.49
2022-11-17T20:04:07.623Z,13.30
2022-11-17T20:06:53.344Z,13.11
2022-11-17T20:09:56.396Z,12.96
2022-11-17T20:12:25.726Z,12.89
2022-11-17T20:15:32.935Z,13.02
2022-11-17T20:18:03.955Z,12.75
2022-11-17T20:23:27.965Z,13.01
2022-11-17T20:26:06.956Z,12.71
2022-11-17T20:28:51.097Z,13.22
2022-11-17T20:31:22.908Z,12.90
2022-11-17T20:33:52.638Z,12.67
2022-11-17T20:36:29.380Z,12.80
2022-11-17T20:39:02.731Z,12.81
2022-11-17T20:41:37.142Z,13.18
2022-11-17T20:44:24.489Z,12.84
2022-11-17T20:46:55.420Z,12.71
2022-11-17T20:49:29.324Z,13.29
2022-11-17T20:51:58.473Z,12.54
2022-11-17T20:54:28.585Z,13.01
2022-11-17T20:57:09.442Z,12.54
2022-11-17T20:59:43.753Z,13.14
2022-11-17T21:13:54.051Z,12.89
2022-11-17T21:22:18.017Z,12.24
2022-11-17T21:24:48.485Z,12.34
2022-11-17T21:27:20.067Z,12.98
2022-11-17T21:30:00.046Z,12.48
2022-11-17T21:32:30.351Z,13.04
2022-11-17T21:35:04.294Z,13.42
2022-11-17T21:37:38.547Z,12.29
2022-11-17T21:43:12.479Z,12.89
2022-11-17T21:45:52.127Z,12.38
2022-11-17T21:48:21.577Z,12.27
2022-11-17T21:50:55.145Z,12.19
2022-11-17T21:53:24.231Z,12.57
2022-11-17T21:55:54.352Z,12.46
2022-11-17T21:58:23.535Z,12.21
2022-11-17T22:00:55.518Z,12.52
2022-11-17T22:03:24.541Z,12.47
2022-11-17T22:05:58.025Z,12.71
2022-11-17T22:08:30.133Z,12.68
2022-11-17T22:10:58.717Z,11.98
2022-11-17T22:13:27.346Z,12.16
2022-11-17T22:15:57.749Z,12.20
2022-11-17T22:18:26.412Z,12.72
2022-11-17T22:20:56.334Z,12.59
2022-11-17T22:23:26.968Z,12.41
2022-11-17T22:25:57.319Z,12.24
2022-11-17T22:28:26.631Z,12.81
2022-11-17T22:31:01.085Z,12.62
2022-11-17T22:33:31.877Z,12.08
2022-11-17T22:36:01.736Z,12.39
2022-11-17T22:38:33.004Z,12.23
2022-11-17T22:41:06.195Z,12.56
2022-11-17T22:43:35.390Z,12.18
2022-11-17T22:46:09.610Z,12.17
2022-11-17T22:48:39.293Z,11.98
2022-11-17T22:51:08.907Z,12.25
2022-11-17T22:53:40.909Z,11.88
2022-11-17T22:56:11.289Z,12.26
2022-11-17T22:58:40.357Z,12.15
2022-11-17T23:01:11.987Z,12.00
2022-11-17T23:03:40.562Z,11.82
2022-11-17T23:06:12.658Z,12.16
2022-11-17T23:08:41.601Z,12.05
2022-11-17T23:14:00.348Z,12.04
2022-11-17T23:16:35.020Z,12.47
2022-11-17T23:19:04.415Z,11.96
2022-11-17T23:21:33.968Z,12.35
2022-11-17T23:24:03.078Z,12.29
2022-11-17T23:26:31.766Z,11.94
2022-11-17T23:29:00.674Z,11.56
2022-11-17T23:31:32.018Z,11.90
2022-11-17T23:34:01.213Z,11.74
2022-11-17T23:36:30.411Z,11.80
2022-11-17T23:38:59.628Z,12.11
2022-11-17T23:41:30.229Z,11.65
2022-11-17T23:44:00.668Z,12.13
2022-11-17T23:46:33.142Z,12.36
2022-11-17T23:49:02.246Z,12.31
2022-11-17T23:51:31.308Z,12.08
2022-11-17T23:54:02.179Z,11.57
2022-11-17T23:56:34.892Z,11.45
2022-11-17T23:59:04.968Z,11.92
